createdAt,value
2022-08-03T00:00:44.298Z,99875.53
2022-08-03T00:03:15.497Z,99881.47
2022-08-03T00:06:04.010Z,99883.25
2022-08-03T00:08:33.822Z,99884.03
2022-08-03T00:11:09.497Z,99873.53
2022-08-03T00:13:38.841Z,99867.69
2022-08-03T00:16:08.141Z,99868.44
2022-08-03T00:18:39.341Z,99883.19
2022-08-03T00:21:08.784Z,99879.47
2022-08-03T00:23:51.277Z,99872.69
2022-08-03T00:26:21.786Z,99884.53
2022-08-03T00:28:51.037Z,99879.38
2022-08-03T00:31:23.122Z,99881.47
2022-08-03T00:34:12.521Z,99876.78
2022-08-03T00:36:42.142Z,99866.00
2022-08-03T00:39:11.587Z,99879.94
2022-08-03T00:41:40.810Z,99871.53
2022-08-03T00:44:12.676Z,99870.78
2022-08-03T00:46:42.056Z,99871.13
2022-08-03T00:49:13.206Z,99874.53
2022-08-03T00:51:45.097Z,99877.91
2022-08-03T00:54:14.414Z,99868.91
2022-08-03T00:56:59.477Z,99875.78
2022-08-03T00:59:29.632Z,99864.03
2022-08-03T01:01:59.227Z,99875.34
2022-08-03T01:04:30.544Z,99870.94
2022-08-03T01:07:10.832Z,99872.72
2022-08-03T01:09:48.398Z,99872.94
2022-08-03T01:12:24.830Z,99869.13
2022-08-03T01:15:00.689Z,99876.16
2022-08-03T01:17:38.946Z,99872.63
2022-08-03T01:20:15.514Z,99870.25
2022-08-03T01:23:02.768Z,99872.09
2022-08-03T01:25:42.408Z,99873.88
2022-08-03T01:28:30.862Z,99868.50
2022-08-03T01:31:08.532Z,99866.31
2022-08-03T01:33:41.178Z,99868.28
2022-08-03T01:36:15.274Z,99866.97
2022-08-03T01:38:48.683Z,99865.13
2022-08-03T01:41:21.978Z,99860.00
2022-08-03T01:44:26.486Z,99867.59
2022-08-03T01:46:48.953Z,99864.72
2022-08-03T01:49:19.472Z,99870.16
2022-08-03T01:52:04.033Z,99870.22
2022-08-03T01:54:38.302Z,99878.75
2022-08-03T01:57:09.929Z,99878.00
2022-08-03T01:59:41.206Z,99870.78
2022-08-03T02:02:32.895Z,99860.81
2022-08-03T02:05:10.609Z,99871.25
2022-08-03T02:07:42.766Z,99871.81
2022-08-03T02:10:15.680Z,99878.66
2022-08-03T02:12:50.980Z,99874.34
2022-08-03T02:15:22.105Z,99881.16
2022-08-03T02:17:55.994Z,99862.81
2022-08-03T02:20:26.824Z,99884.81
2022-08-03T02:22:56.272Z,99884.88
2022-08-03T02:25:25.717Z,99873.97
2022-08-03T02:28:03.130Z,99892.31
2022-08-03T02:30:38.713Z,99874.59
2022-08-03T02:33:14.213Z,99882.72
2022-08-03T02:35:45.795Z,99881.31
2022-08-03T02:38:16.063Z,99883.19
2022-08-03T02:40:46.714Z,99883.44
2022-08-03T02:43:29.238Z,99887.63
2022-08-03T02:46:21.638Z,99887.69
2022-08-03T02:49:42.632Z,99890.53
2022-08-03T02:51:58.042Z,99893.00
2022-08-03T02:54:28.487Z,99897.66
2022-08-03T02:57:08.704Z,99897.00
2022-08-03T02:59:39.519Z,99893.53
2022-08-03T03:02:11.675Z,99886.72
2022-08-03T03:05:52.794Z,99897.50
2022-08-03T03:07:51.490Z,99899.91
2022-08-03T03:10:23.302Z,99889.28
2022-08-03T03:12:54.926Z,99892.81
2022-08-03T03:15:24.060Z,99902.34
2022-08-03T03:17:55.310Z,99893.63
2022-08-03T03:20:30.092Z,99885.84
2022-08-03T03:23:01.856Z,99887.94
2022-08-03T03:25:32.759Z,99891.56
2022-08-03T03:28:02.437Z,99905.31
2022-08-03T03:30:32.613Z,99910.28
2022-08-03T03:33:02.617Z,99913.41
2022-08-03T03:35:37.965Z,99907.69
2022-08-03T03:38:09.222Z,99912.50
2022-08-03T03:40:39.385Z,99915.31
2022-08-03T03:43:10.755Z,99911.13
2022-08-03T03:45:42.459Z,99913.50
2022-08-03T03:48:11.223Z,99916.06
2022-08-03T03:50:42.433Z,99918.06
2022-08-03T03:53:15.841Z,99918.63
2022-08-03T03:55:59.317Z,99916.06
2022-08-03T03:58:34.174Z,99890.97
2022-08-03T04:01:03.773Z,99910.56
2022-08-03T04:03:32.983Z,99909.53
2022-08-03T04:06:17.135Z,99919.56
2022-08-03T04:09:00.114Z,99912.53
2022-08-03T04:11:32.793Z,99928.38
2022-08-03T04:14:08.523Z,99929.06
2022-08-03T04:16:43.878Z,99919.78
2022-08-03T04:19:22.616Z,99932.09
2022-08-03T04:21:59.557Z,99921.75
2022-08-03T04:24:35.852Z,99932.25
2022-08-03T04:27:09.055Z,99929.34
2022-08-03T04:29:48.083Z,99915.41
2022-08-03T04:32:19.886Z,99914.06
2022-08-03T04:34:49.328Z,99935.25
2022-08-03T04:37:27.418Z,99925.72
2022-08-03T04:39:59.802Z,99928.25
2022-08-03T04:42:42.715Z,99917.56
2022-08-03T04:45:15.189Z,99924.19
2022-08-03T04:47:45.171Z,99920.41
2022-08-03T04:50:20.877Z,99920.78
2022-08-03T04:53:09.819Z,99921.28
2022-08-03T04:55:39.032Z,99925.16
2022-08-03T04:58:08.474Z,99921.31
2022-08-03T05:00:37.919Z,99895.72
2022-08-03T05:03:20.187Z,99924.16
2022-08-03T05:06:01.657Z,99920.78
2022-08-03T05:08:33.405Z,99920.69
2022-08-03T05:11:03.473Z,99911.53
2022-08-03T05:13:32.603Z,99919.84
2022-08-03T05:16:01.860Z,99923.59
2022-08-03T05:18:31.840Z,99927.06
2022-08-03T05:21:01.103Z,99912.97
2022-08-03T05:23:30.277Z,99916.00
2022-08-03T05:26:01.708Z,99913.06
2022-08-03T05:28:30.573Z,99942.44
2022-08-03T05:30:59.843Z,99918.53
2022-08-03T05:33:29.082Z,99933.03
2022-08-03T05:36:03.200Z,99938.75
2022-08-03T05:38:35.528Z,99943.41
2022-08-03T05:41:20.212Z,99931.06
2022-08-03T05:43:53.330Z,99944.16
2022-08-03T05:46:23.777Z,99914.00
2022-08-03T05:48:53.022Z,99942.94
2022-08-03T05:51:24.063Z,99944.72
2022-08-03T05:53:53.352Z,99937.00
2022-08-03T05:56:27.038Z,99942.38
2022-08-03T05:58:56.653Z,99936.06
2022-08-03T06:01:26.220Z,99938.72
2022-08-03T06:03:55.510Z,99930.13
2022-08-03T06:06:25.874Z,99927.09
2022-08-03T06:08:57.906Z,99910.03
2022-08-03T06:11:29.084Z,99918.34
2022-08-03T06:14:00.752Z,99935.97
2022-08-03T06:16:29.936Z,99931.16
2022-08-03T06:18:58.986Z,99935.84
2022-08-03T06:21:28.984Z,99930.22
2022-08-03T06:24:00.185Z,99935.00
2022-08-03T06:26:35.284Z,99929.03
2022-08-03T06:29:04.598Z,99934.50
2022-08-03T06:31:37.873Z,99937.41
2022-08-03T06:34:33.748Z,99937.00
2022-08-03T06:37:01.817Z,99930.81
2022-08-03T06:39:31.816Z,99944.38
2022-08-03T06:42:03.403Z,99939.66
2022-08-03T06:44:32.605Z,99941.56
2022-08-03T06:47:02.098Z,99939.19
2022-08-03T06:49:31.472Z,99910.00
2022-08-03T06:52:05.802Z,99917.72
2022-08-03T06:54:37.983Z,99933.41
2022-08-03T06:57:11.175Z,99939.66
2022-08-03T07:00:08.644Z,99938.53
2022-08-03T07:02:30.271Z,99942.50
2022-08-03T07:05:00.633Z,99934.47
2022-08-03T07:07:30.670Z,99936.84
2022-08-03T07:09:59.807Z,99936.06
2022-08-03T07:12:31.926Z,99926.63
2022-08-03T07:15:03.370Z,99933.22
2022-08-03T07:17:37.270Z,99932.44
2022-08-03T07:20:08.902Z,99934.44
2022-08-03T07:22:38.557Z,99940.03
2022-08-03T07:25:09.004Z,99932.63
2022-08-03T07:27:40.526Z,99941.81
2022-08-03T07:30:11.203Z,99933.31
2022-08-03T07:32:50.286Z,99928.56
2022-08-03T07:35:24.904Z,99936.00
2022-08-03T07:37:55.326Z,99923.50
2022-08-03T07:40:25.144Z,99932.69
2022-08-03T07:43:03.452Z,99930.84
2022-08-03T07:45:33.473Z,99905.03
2022-08-03T07:48:02.685Z,99937.59
2022-08-03T07:50:32.921Z,99937.25
2022-08-03T07:53:02.101Z,99930.50
2022-08-03T07:55:31.298Z,99932.47
2022-08-03T07:58:08.953Z,99943.88
2022-08-03T08:00:38.493Z,99945.84
2022-08-03T08:03:07.622Z,99940.06
2022-08-03T08:05:36.941Z,99938.59
2022-08-03T08:08:06.927Z,99945.94
2022-08-03T08:10:37.046Z,99942.19
2022-08-03T08:13:08.233Z,99946.88
2022-08-03T08:15:37.136Z,99950.63
2022-08-03T08:18:12.410Z,99947.28
2022-08-03T08:20:43.146Z,99917.69
2022-08-03T08:23:32.618Z,99950.59
2022-08-03T08:26:04.196Z,99945.88
2022-08-03T08:28:35.312Z,99947.50
2022-08-03T08:31:04.202Z,99948.47
2022-08-03T08:34:01.510Z,99941.97
2022-08-03T08:36:23.678Z,99936.59
2022-08-03T08:38:52.901Z,99948.75
2022-08-03T08:41:22.155Z,99943.50
2022-08-03T08:43:58.121Z,99916.75
2022-08-03T08:46:30.962Z,99935.56
2022-08-03T08:49:04.982Z,99944.97
2022-08-03T08:51:54.440Z,99949.78
2022-08-03T08:54:27.950Z,99951.69
2022-08-03T08:56:59.060Z,99948.59
2022-08-03T08:59:47.653Z,99949.84
2022-08-03T09:02:18.618Z,99946.47
2022-08-03T09:04:48.519Z,99952.53
2022-08-03T09:07:20.472Z,99950.28
2022-08-03T09:10:11.789Z,99952.25
2022-08-03T09:12:42.885Z,99946.78
2022-08-03T09:15:30.856Z,99946.84
2022-08-03T09:18:02.134Z,99947.25
2022-08-03T09:20:33.140Z,99940.69
2022-08-03T09:23:19.114Z,99953.06
2022-08-03T09:26:01.335Z,99946.91
2022-08-03T09:28:57.986Z,99941.56
2022-08-03T09:31:36.531Z,99947.06
2022-08-03T09:34:07.689Z,99945.34
2022-08-03T09:36:38.710Z,99948.03
2022-08-03T09:39:10.954Z,99946.63
2022-08-03T09:41:41.625Z,99939.06
2022-08-03T09:44:24.680Z,99936.25
2022-08-03T09:46:58.115Z,99945.06
2022-08-03T09:49:27.349Z,99949.88
2022-08-03T09:52:31.584Z,99944.09
2022-08-03T09:54:52.862Z,99946.19
2022-08-03T09:57:24.794Z,99940.84
2022-08-03T10:00:04.630Z,99941.00
2022-08-03T10:02:44.624Z,99932.16
2022-08-03T10:05:17.654Z,99945.38
2022-08-03T10:07:50.650Z,99949.44
2022-08-03T10:10:29.896Z,99946.75
2022-08-03T10:13:01.905Z,99942.00
2022-08-03T10:16:21.404Z,99948.84
2022-08-03T10:18:22.711Z,99947.75
2022-08-03T10:20:53.542Z,99944.94
2022-08-03T10:23:24.624Z,99943.38
2022-08-03T10:25:59.874Z,99942.13
2022-08-03T10:28:37.055Z,99944.78
2022-08-03T10:31:09.203Z,99941.44
2022-08-03T10:33:50.972Z,99941.28
2022-08-03T10:36:26.622Z,99940.59
2022-08-03T10:38:58.108Z,99944.97
2022-08-03T10:41:32.905Z,99947.44
2022-08-03T10:44:07.394Z,99949.75
2022-08-03T10:46:44.197Z,99942.69
2022-08-03T10:49:25.502Z,99947.19
2022-08-03T10:52:13.409Z,99934.31
2022-08-03T10:55:09.974Z,99946.09
2022-08-03T10:57:49.711Z,99950.78
2022-08-03T11:00:21.287Z,99942.22
2022-08-03T11:03:05.915Z,99953.66
2022-08-03T11:05:40.362Z,99952.44
2022-08-03T11:08:27.889Z,99953.03
2022-08-03T11:11:00.037Z,99959.84
2022-08-03T11:13:33.289Z,99948.47
2022-08-03T11:16:07.187Z,99956.88
2022-08-03T11:18:37.862Z,99951.94
2022-08-03T11:21:09.974Z,99956.69
2022-08-03T11:24:03.490Z,99950.91
2022-08-03T11:26:35.799Z,99940.31
2022-08-03T11:29:30.852Z,99957.28
2022-08-03T11:32:00.244Z,99961.88
2022-08-03T11:34:30.032Z,99956.84
2022-08-03T11:37:31.359Z,99966.38
2022-08-03T11:40:03.178Z,99962.06
2022-08-03T11:42:47.663Z,99963.78
2022-08-03T11:45:19.504Z,99954.16
2022-08-03T11:47:51.617Z,99950.69
2022-08-03T11:50:22.087Z,99949.16
2022-08-03T11:52:53.419Z,99956.03
2022-08-03T11:55:25.026Z,99944.38
2022-08-03T11:59:12.893Z,99946.84
2022-08-03T12:00:51.576Z,99959.03
2022-08-03T12:03:22.255Z,99956.22
2022-08-03T12:05:54.817Z,99946.94
2022-08-03T12:08:34.547Z,99942.81
2022-08-03T12:11:08.854Z,99939.16
2022-08-03T12:14:08.860Z,99950.03
2022-08-03T12:16:30.759Z,99935.72
2022-08-03T12:19:01.499Z,99940.97
2022-08-03T12:21:31.843Z,99934.25
2022-08-03T12:24:05.165Z,99943.41
2022-08-03T12:26:58.832Z,99944.50
2022-08-03T12:29:29.189Z,99943.94
2022-08-03T12:31:58.956Z,99942.28
2022-08-03T12:34:47.864Z,99946.19
2022-08-03T12:37:22.559Z,99950.41
2022-08-03T12:40:01.722Z,99951.81
2022-08-03T12:42:35.668Z,99944.94
2022-08-03T12:45:25.036Z,99955.22
2022-08-03T12:47:57.539Z,99956.19
2022-08-03T12:57:45.611Z,99951.25
2022-08-03T13:00:21.721Z,99951.28
2022-08-03T13:03:41.705Z,99964.19
2022-08-03T13:05:53.629Z,99957.00
2022-08-03T13:08:24.685Z,99964.03
2022-08-03T13:10:53.950Z,99958.41
2022-08-03T13:13:42.366Z,99957.06
2022-08-03T13:16:15.804Z,99961.38
2022-08-03T13:18:48.236Z,99960.94
2022-08-03T13:21:18.115Z,99956.59
2022-08-03T13:23:48.370Z,99957.16
2022-08-03T13:26:17.510Z,99956.59
2022-08-03T13:28:48.547Z,99955.19
2022-08-03T13:31:17.331Z,99956.31
2022-08-03T13:33:46.898Z,99954.50
2022-08-03T13:36:21.256Z,99947.34
2022-08-03T13:38:50.387Z,99953.09
2022-08-03T13:41:19.585Z,99949.59
2022-08-03T13:44:26.472Z,99960.69
2022-08-03T13:46:51.817Z,99926.84
2022-08-03T13:49:21.191Z,99953.94
2022-08-03T13:51:50.989Z,99938.47
2022-08-03T13:54:20.195Z,99951.00
2022-08-03T13:56:52.292Z,99955.50
2022-08-03T13:59:24.501Z,99942.72
2022-08-03T14:01:55.901Z,99960.25
2022-08-03T14:04:25.281Z,99944.09
2022-08-03T14:06:54.425Z,99953.25
2022-08-03T14:09:23.830Z,99943.13
2022-08-03T14:12:06.897Z,99949.13
2022-08-03T14:14:39.941Z,99945.28
2022-08-03T14:17:09.147Z,99949.22
2022-08-03T14:19:44.910Z,99942.47
2022-08-03T14:22:24.577Z,99947.81
2022-08-03T14:24:53.877Z,99940.47
2022-08-03T14:27:23.084Z,99948.19
2022-08-03T14:29:56.204Z,99941.88
2022-08-03T14:32:25.361Z,99952.84
2022-08-03T14:34:54.699Z,99953.53
2022-08-03T14:37:23.890Z,99947.25
2022-08-03T14:40:00.944Z,99946.47
2022-08-03T14:42:31.582Z,99952.66
2022-08-03T14:45:09.067Z,99948.59
2022-08-03T14:50:34.122Z,99952.94
2022-08-03T14:50:41.009Z,99949.28
2022-08-03T14:53:13.654Z,99942.84
2022-08-03T14:55:50.062Z,99946.47
2022-08-03T14:58:20.636Z,99947.31
2022-08-03T15:00:53.978Z,99948.16
2022-08-03T15:03:25.116Z,99953.81
2022-08-03T15:05:55.334Z,99960.13
2022-08-03T15:08:26.537Z,99959.25
2022-08-03T15:10:56.063Z,99955.19
2022-08-03T15:13:26.445Z,99929.78
2022-08-03T15:15:57.786Z,99961.09
2022-08-03T15:18:30.207Z,99952.66
2022-08-03T15:20:59.637Z,99951.25
2022-08-03T15:23:30.179Z,99939.81
2022-08-03T15:26:29.552Z,99953.38
2022-08-03T15:28:48.631Z,99957.84
2022-08-03T15:31:23.042Z,99963.03
2022-08-03T15:33:52.688Z,99961.28
2022-08-03T15:36:22.043Z,99944.09
2022-08-03T15:38:51.260Z,99945.06
2022-08-03T15:41:20.688Z,99962.75
2022-08-03T15:43:52.361Z,99962.91
2022-08-03T15:46:30.758Z,99973.28
2022-08-03T15:49:00.129Z,99968.44
2022-08-03T15:51:29.545Z,99970.03
2022-08-03T15:53:58.998Z,99975.81
2022-08-03T15:56:28.122Z,99966.34
2022-08-03T15:59:10.431Z,99971.53
2022-08-03T16:01:44.470Z,99966.03
2022-08-03T16:04:13.806Z,99957.38
2022-08-03T16:06:43.044Z,99959.63
2022-08-03T16:09:23.823Z,99961.47
2022-08-03T16:12:01.556Z,99953.75
2022-08-03T16:14:32.133Z,99960.47
2022-08-03T16:17:09.618Z,99958.56
2022-08-03T16:19:38.775Z,99957.63
2022-08-03T16:22:08.353Z,99952.47
2022-08-03T16:24:39.745Z,99958.41
2022-08-03T16:27:36.744Z,99960.19
2022-08-03T16:29:58.645Z,99955.53
2022-08-03T16:32:29.997Z,99965.59
2022-08-03T16:34:59.172Z,99963.09
2022-08-03T16:37:50.618Z,99936.94
2022-08-03T16:40:19.628Z,99964.84
2022-08-03T16:42:51.513Z,99965.97
2022-08-03T16:45:21.307Z,99965.66
2022-08-03T16:48:01.796Z,99969.38
2022-08-03T16:50:37.186Z,99970.44
2022-08-03T16:53:09.191Z,99970.75
2022-08-03T16:55:48.837Z,99974.81
2022-08-03T16:58:24.321Z,99978.16
2022-08-03T17:01:10.796Z,99979.91
2022-08-03T17:04:01.475Z,99986.72
2022-08-03T17:06:34.499Z,99987.44
2022-08-03T17:09:08.320Z,99996.22
2022-08-03T17:11:46.854Z,99994.53
2022-08-03T17:14:21.918Z,99997.09
2022-08-03T17:16:54.249Z,100000.44
2022-08-03T17:19:26.417Z,99996.78
2022-08-03T17:22:01.793Z,100009.94
2022-08-03T17:24:36.931Z,100011.00
2022-08-03T17:28:42.150Z,100018.66
2022-08-03T17:30:09.010Z,99983.19
2022-08-03T17:32:42.585Z,100011.41
2022-08-03T17:35:15.852Z,100002.47
2022-08-03T17:38:13.752Z,100035.75
2022-08-03T17:40:50.269Z,100036.31
2022-08-03T17:44:12.981Z,100042.03
2022-08-03T17:46:12.276Z,100035.84
2022-08-03T17:48:42.226Z,100030.78
2022-08-03T17:51:23.637Z,100028.03
2022-08-03T17:53:55.657Z,100046.69
2022-08-03T17:56:45.125Z,100033.66
2022-08-03T17:59:50.553Z,100044.59
2022-08-03T18:02:38.691Z,100046.81
2022-08-03T18:05:21.876Z,100042.38
2022-08-03T18:08:00.927Z,100043.66
2022-08-03T18:10:38.312Z,100048.84
2022-08-03T18:13:24.877Z,100024.50
2022-08-03T18:16:04.638Z,100053.94
2022-08-03T18:18:37.631Z,100058.81
2022-08-03T18:21:17.044Z,100068.13
2022-08-03T18:23:51.853Z,100061.75
2022-08-03T18:26:22.327Z,100074.69
2022-08-03T18:28:54.546Z,100067.97
2022-08-03T18:31:59.872Z,100082.06
2022-08-03T18:34:33.912Z,100080.69
2022-08-03T18:37:07.677Z,100084.06
2022-08-03T18:39:50.007Z,100087.34
2022-08-03T18:42:25.904Z,100089.44
2022-08-03T18:44:57.111Z,100078.53
2022-08-03T18:47:52.624Z,100091.00
2022-08-03T18:50:30.638Z,100096.63
2022-08-03T18:53:16.380Z,100093.63
2022-08-03T18:56:01.236Z,100100.34
2022-08-03T18:58:40.607Z,100105.72
2022-08-03T19:02:00.322Z,100106.56
2022-08-03T19:04:14.168Z,100109.56
2022-08-03T19:06:49.105Z,100120.34
2022-08-03T19:09:27.897Z,100102.41
2022-08-03T19:12:13.189Z,100097.75
2022-08-03T19:14:55.858Z,100109.75
2022-08-03T19:17:30.335Z,100116.00
2022-08-03T19:20:02.784Z,100109.75
2022-08-03T19:22:34.415Z,100116.31
2022-08-03T19:25:07.124Z,100109.72
2022-08-03T19:27:46.662Z,100118.78
2022-08-03T19:30:32.320Z,100110.28
2022-08-03T19:33:02.545Z,100101.97
2022-08-03T19:35:52.081Z,100112.91
2022-08-03T19:38:28.186Z,100125.38
2022-08-03T19:41:03.228Z,100115.19
2022-08-03T19:46:31.100Z,100128.94
2022-08-03T19:49:04.958Z,100118.66
2022-08-03T19:54:52.970Z,100122.53
2022-08-03T19:57:28.822Z,100119.06
2022-08-03T20:00:03.410Z,100115.25
2022-08-03T20:02:35.063Z,100124.59
2022-08-03T20:05:04.701Z,100115.47
2022-08-03T20:07:47.808Z,100115.38
2022-08-03T20:10:19.023Z,100114.72
2022-08-03T20:12:49.577Z,100111.88
2022-08-03T20:15:31.731Z,100118.09
2022-08-03T20:18:01.583Z,100115.19
2022-08-03T20:20:34.741Z,100105.81
2022-08-03T20:23:08.491Z,100123.25
2022-08-03T20:25:55.722Z,100129.06
2022-08-03T20:28:32.337Z,100130.44
2022-08-03T20:31:04.856Z,100138.44
2022-08-03T20:33:46.547Z,100136.06
2022-08-03T20:36:19.166Z,100134.97
2022-08-03T20:38:49.534Z,100143.97
2022-08-03T20:41:21.630Z,100146.47
2022-08-03T20:43:50.985Z,100147.69
2022-08-03T20:46:31.132Z,100141.38
2022-08-03T20:49:07.334Z,100151.81
2022-08-03T20:51:50.471Z,100150.72
2022-08-03T20:54:31.353Z,100157.78
2022-08-03T20:57:04.075Z,100151.66
2022-08-03T20:59:50.255Z,100149.13
2022-08-03T21:02:30.231Z,100160.03
2022-08-03T21:05:08.190Z,100156.88
2022-08-03T21:08:03.842Z,100163.41
2022-08-03T21:10:37.837Z,100164.56
2022-08-03T21:13:03.089Z,100103.84
2022-08-03T21:13:17.434Z,100159.25
2022-08-03T21:16:06.099Z,100162.47
2022-08-03T21:18:45.448Z,100166.56
2022-08-03T21:21:17.108Z,100165.50
2022-08-03T21:23:50.287Z,100157.81
2022-08-03T21:26:20.758Z,100169.06
2022-08-03T21:28:51.048Z,100168.50
2022-08-03T21:31:25.592Z,100174.00
2022-08-03T21:34:00.097Z,100162.56
2022-08-03T21:36:31.194Z,100158.59
2022-08-03T21:39:01.144Z,100170.78
2022-08-03T21:41:33.724Z,100161.63
2022-08-03T21:44:05.840Z,100160.22
2022-08-03T21:46:37.538Z,100168.06
2022-08-03T21:50:05.167Z,100166.63
2022-08-03T21:52:06.536Z,100162.19
2022-08-03T21:54:38.334Z,100169.19
2022-08-03T21:57:15.909Z,100174.44
2022-08-03T21:59:53.499Z,100168.53
2022-08-03T22:02:27.423Z,100170.56
2022-08-03T22:04:59.257Z,100174.25
2022-08-03T22:07:30.965Z,100163.47
2022-08-03T22:10:02.360Z,100165.84
2022-08-03T22:12:33.236Z,100173.66
2022-08-03T22:15:03.838Z,100170.25
2022-08-03T22:17:55.106Z,100176.38
2022-08-03T22:20:28.524Z,100172.66
2022-08-03T22:23:01.732Z,100170.84
2022-08-03T22:25:33.550Z,100175.16
2022-08-03T22:28:04.544Z,100174.38
2022-08-03T22:30:34.743Z,100165.56
2022-08-03T22:33:10.967Z,100175.38
2022-08-03T22:35:47.765Z,100173.59
2022-08-03T22:38:20.132Z,100169.34
2022-08-03T22:40:51.383Z,100176.16
2022-08-03T22:43:24.590Z,100181.28
2022-08-03T22:46:09.066Z,100177.78
2022-08-03T22:48:41.625Z,100176.78
2022-08-03T22:51:12.989Z,100184.75
2022-08-03T22:53:42.487Z,100183.19
2022-08-03T22:56:12.047Z,100182.66
2022-08-03T22:58:41.282Z,100194.75
2022-08-03T23:01:13.118Z,100177.66
2022-08-03T23:04:00.956Z,100183.47
2022-08-03T23:06:37.303Z,100187.19
2022-08-03T23:09:08.789Z,100172.28
2022-08-03T23:11:43.002Z,100185.34
2022-08-03T23:14:17.201Z,100178.94
2022-08-03T23:16:50.002Z,100187.97
2022-08-03T23:19:25.584Z,100204.38
2022-08-03T23:22:03.152Z,100204.50
2022-08-03T23:24:37.666Z,100196.88
2022-08-03T23:27:08.773Z,100183.44
2022-08-03T23:29:39.384Z,100204.25
2022-08-03T23:32:10.480Z,100206.25
2022-08-03T23:34:54.466Z,100207.22
2022-08-03T23:37:29.320Z,100174.94
2022-08-03T23:40:00.344Z,100202.91
2022-08-03T23:42:30.456Z,100176.50
2022-08-03T23:45:05.723Z,100163.28
2022-08-03T23:47:47.456Z,100208.38
2022-08-03T23:50:17.817Z,100213.72
2022-08-03T23:52:59.681Z,100210.34
2022-08-03T23:55:44.765Z,100205.31
2022-08-03T23:58:24.994Z,100214.63
